Time;durP1;ratioP1;P1;durP2;ratioP2;P2;SDS_P1;SDS_P2;PMS_P1;PMS_P2;Temp;Humidity;BMP_temperature;BMP_pressure;BME280_temperature;BME280_humidity;BME280_pressure;Samples;Min_cycle;Max_cycle;Signal;HPM_P1;HPM_P2
2023/03/28 00:01:56;;;;;;;;;;;0.90;99.90;;;;;;5035948;28;19921;-64
2023/03/28 00:04:22;;;;;;;;;;;0.90;99.90;;;;;;5029339;28;20272;-65
2023/03/28 00:06:50;;;;;;;;;;;0.90;99.90;;;;;;5034486;28;20260;-65
2023/03/28 00:09:17;;;;;;;;;;;0.90;99.90;;;;;;5032105;28;20103;-65
2023/03/28 00:11:44;;;;;;;;;;;0.90;99.90;;;;;;5029740;28;19967;-64
2023/03/28 00:14:13;;;;;;;;;;;0.90;99.90;;;;;;5024952;28;19967;-65
2023/03/28 00:16:40;;;;;;;;;;;0.90;99.90;;;;;;5032675;28;20020;-65
2023/03/28 00:19:08;;;;;;;;;;;1.00;99.90;;;;;;5026729;28;19991;-64
2023/03/28 00:21:35;;;;;;;;;;;0.90;99.90;;;;;;5027630;28;19925;-64
2023/03/28 00:24:04;;;;;;;;;;;0.90;99.90;;;;;;5028769;28;19925;-64
2023/03/28 00:26:31;;;;;;;;;;;0.90;99.90;;;;;;5031673;28;19971;-64
2023/03/28 00:29:00;;;;;;;;;;;0.90;99.90;;;;;;5028299;28;19925;-63
2023/03/28 00:31:26;;;;;;;;;;;0.90;99.90;;;;;;5037241;28;19921;-64
2023/03/28 00:33:53;;;;;;;;;;;0.90;99.90;;;;;;5034919;28;19925;-64
2023/03/28 00:36:21;;;;;;;;;;;0.90;99.90;;;;;;5030861;28;20276;-65
2023/03/28 00:38:48;;;;;;;;;;;0.90;99.90;;;;;;5028049;28;19929;-63
2023/03/28 00:41:17;;;;;;;;;;;0.90;99.90;;;;;;5035241;28;20003;-65
2023/03/28 00:43:45;;;;;;;;;;;0.80;99.90;;;;;;5033125;28;20372;-65
2023/03/28 00:46:18;;;;;;;;;;;0.80;99.90;;;;;;5032117;28;20391;-64
2023/03/28 00:48:48;;;;;;;;;;;0.80;99.90;;;;;;5029254;28;19921;-65
2023/03/28 00:51:16;;;;;;;;;;;0.80;99.90;;;;;;5030532;28;20371;-64
2023/03/28 00:53:42;;;;;;;;;;;0.80;99.90;;;;;;5033481;28;19927;-63
2023/03/28 00:56:10;;;;;;;;;;;0.80;99.90;;;;;;5029027;28;19968;-64
2023/03/28 00:58:41;;;;;;;;;;;0.80;99.90;;;;;;5029505;28;19928;-63
2023/03/28 01:01:09;;;;;;;;;;;0.80;99.90;;;;;;5032514;28;19921;-64
2023/03/28 01:03:40;;;;;;;;;;;0.80;99.90;;;;;;5032524;28;19943;-64
2023/03/28 01:06:08;;;;;;;;;;;0.70;99.90;;;;;;5027778;28;19928;-64
2023/03/28 01:08:37;;;;;;;;;;;0.80;99.90;;;;;;5029268;28;20464;-64
2023/03/28 01:11:04;;;;;;;;;;;0.80;99.90;;;;;;5022954;28;19991;-64
2023/03/28 01:13:31;;;;;;;;;;;0.70;99.90;;;;;;5031018;28;19925;-65
2023/03/28 01:16:01;;;;;;;;;;;0.70;99.90;;;;;;5030307;28;20327;-65
2023/03/28 01:18:29;;;;;;;;;;;0.70;99.90;;;;;;5030206;28;20008;-63
2023/03/28 01:21:10;;;;;;;;;;;0.70;99.90;;;;;;5031010;28;19975;-63
2023/03/28 01:23:50;;;;;;;;;;;0.70;99.90;;;;;;5026350;28;20011;-64
2023/03/28 01:26:32;;;;;;;;;;;0.60;99.90;;;;;;5033727;28;19921;-64
2023/03/28 01:29:14;;;;;;;;;;;0.50;99.90;;;;;;5032511;28;19979;-64
2023/03/28 01:31:55;;;;;;;;;;;0.50;99.90;;;;;;5028821;28;20407;-64
2023/03/28 01:34:35;;;;;;;;;;;0.50;99.90;;;;;;5032184;28;19925;-65
2023/03/28 01:37:21;;;;;;;;;;;0.50;99.90;;;;;;5028188;28;19922;-64
2023/03/28 01:39:55;;;;;;;;;;;0.50;99.90;;;;;;5028739;28;20515;-64
2023/03/28 01:42:26;;;;;;;;;;;0.40;99.90;;;;;;5031447;28;20012;-63
2023/03/28 01:44:58;;;;;;;;;;;0.40;99.90;;;;;;5029846;28;19921;-64
2023/03/28 01:47:27;;;;;;;;;;;0.40;99.90;;;;;;5029736;28;19940;-64
2023/03/28 01:50:00;;;;;;;;;;;0.40;99.90;;;;;;5032132;28;20261;-64
2023/03/28 01:52:31;;;;;;;;;;;0.30;99.90;;;;;;5028404;28;20016;-65
2023/03/28 01:55:02;;;;;;;;;;;0.30;99.90;;;;;;5025796;28;19920;-64
2023/03/28 01:57:32;;;;;;;;;;;0.30;99.90;;;;;;5023848;28;19921;-63
2023/03/28 02:00:00;;;;;;;;;;;0.20;99.90;;;;;;5025488;28;19967;-65
2023/03/28 02:02:29;;;;;;;;;;;0.10;99.90;;;;;;5029255;28;20341;-65
2023/03/28 02:04:58;;;;;;;;;;;0.10;99.90;;;;;;5031360;28;20489;-65
2023/03/28 02:07:25;;;;;;;;;;;0.10;99.90;;;;;;5021993;28;19920;-63
2023/03/28 02:09:54;;;;;;;;;;;0.00;99.90;;;;;;5029378;28;20008;-65
2023/03/28 02:12:24;;;;;;;;;;;0.00;99.90;;;;;;5027215;28;20386;-64
2023/03/28 02:14:51;;;;;;;;;;;-0.10;99.90;;;;;;5036465;28;19925;-64
2023/03/28 02:17:20;;;;;;;;;;;-0.10;99.90;;;;;;5029005;28;19928;-65
2023/03/28 02:19:49;;;;;;;;;;;-0.20;99.90;;;;;;5031922;28;19943;-63
2023/03/28 02:22:19;;;;;;;;;;;-0.30;99.90;;;;;;5029231;28;19925;-63
2023/03/28 02:24:49;;;;;;;;;;;-0.30;99.90;;;;;;5027261;28;19928;-64
2023/03/28 02:27:16;;;;;;;;;;;-0.30;99.90;;;;;;5025952;28;19924;-64
2023/03/28 02:29:44;;;;;;;;;;;-0.30;99.90;;;;;;5028159;28;19936;-63
2023/03/28 02:32:11;;;;;;;;;;;-0.20;99.90;;;;;;5033106;28;19925;-63
2023/03/28 02:34:37;;;;;;;;;;;-0.30;99.90;;;;;;5033013;28;19925;-64
2023/03/28 02:37:08;;;;;;;;;;;-0.30;99.90;;;;;;5029359;28;19968;-63
2023/03/28 02:39:41;;;;;;;;;;;-0.30;99.90;;;;;;5027276;28;19921;-64
2023/03/28 02:42:12;;;;;;;;;;;-0.30;99.90;;;;;;5025086;28;19967;-64
2023/03/28 02:45:02;;;;;;;;;;;-0.30;99.90;;;;;;5027702;28;20396;-65
2023/03/28 02:47:33;;;;;;;;;;;-0.20;99.90;;;;;;5027271;28;20000;-64
2023/03/28 02:50:05;;;;;;;;;;;-0.20;99.90;;;;;;5032581;28;19971;-63
2023/03/28 02:52:36;;;;;;;;;;;-0.30;99.90;;;;;;5030449;28;20369;-64
2023/03/28 02:55:11;;;;;;;;;;;-0.30;99.90;;;;;;5033723;28;19925;-64
2023/03/28 02:57:39;;;;;;;;;;;-0.30;99.90;;;;;;5034949;28;19964;-63
2023/03/28 03:00:10;;;;;;;;;;;-0.30;99.90;;;;;;5037792;28;19944;-63
2023/03/28 03:02:36;;;;;;;;;;;-0.30;99.90;;;;;;5040307;28;19921;-63
2023/03/28 03:05:03;;;;;;;;;;;-0.30;99.90;;;;;;5031349;28;19991;-64
2023/03/28 03:07:30;;;;;;;;;;;-0.30;99.90;;;;;;5025908;28;19972;-66
2023/03/28 03:09:57;;;;;;;;;;;-0.30;99.90;;;;;;5028187;28;20405;-64
2023/03/28 03:12:24;;;;;;;;;;;-0.30;99.90;;;;;;5028498;28;19929;-64
2023/03/28 03:14:51;;;;;;;;;;;-0.40;99.90;;;;;;5028167;28;19925;-64
2023/03/28 03:17:19;;;;;;;;;;;-0.40;99.90;;;;;;5027878;28;19968;-63
2023/03/28 03:19:45;;;;;;;;;;;-0.30;99.90;;;;;;5028707;28;20287;-63
2023/03/28 03:22:12;;;;;;;;;;;-0.30;99.90;;;;;;5027411;28;19921;-63
2023/03/28 03:24:39;;;;;;;;;;;-0.30;99.90;;;;;;5026124;28;19971;-64
2023/03/28 03:27:05;;;;;;;;;;;-0.40;99.90;;;;;;5024955;28;19927;-64
2023/03/28 03:29:32;;;;;;;;;;;-0.40;99.90;;;;;;5024611;28;20372;-64
2023/03/28 03:31:58;;;;;;;;;;;-0.40;99.90;;;;;;5030014;28;19925;-64
2023/03/28 03:34:26;;;;;;;;;;;-0.50;99.90;;;;;;5029502;28;19928;-65
2023/03/28 03:36:53;;;;;;;;;;;-0.50;99.90;;;;;;5028502;28;20375;-64
2023/03/28 03:39:20;;;;;;;;;;;-0.50;99.90;;;;;;5026874;28;19925;-64
2023/03/28 03:41:46;;;;;;;;;;;-0.50;99.90;;;;;;5030477;28;19924;-63
2023/03/28 03:44:13;;;;;;;;;;;-0.40;99.90;;;;;;5026576;28;19967;-65
2023/03/28 03:46:39;;;;;;;;;;;-0.40;99.90;;;;;;5025829;28;19991;-64
2023/03/28 03:49:06;;;;;;;;;;;-0.40;99.90;;;;;;5024939;28;19975;-64
2023/03/28 03:51:34;;;;;;;;;;;-0.40;99.90;;;;;;5029906;28;19967;-63
2023/03/28 03:54:01;;;;;;;;;;;-0.40;99.90;;;;;;5030931;28;21380;-64
2023/03/28 03:56:27;;;;;;;;;;;-0.40;99.90;;;;;;5026497;28;19975;-64
2023/03/28 03:58:54;;;;;;;;;;;-0.40;99.90;;;;;;5022895;28;19925;-65
2023/03/28 04:01:20;;;;;;;;;;;-0.40;99.90;;;;;;5023855;28;19964;-64
2023/03/28 04:03:47;;;;;;;;;;;-0.40;99.90;;;;;;5030831;28;19927;-63
2023/03/28 04:06:14;;;;;;;;;;;-0.40;99.90;;;;;;5027258;28;19925;-64
2023/03/28 04:08:42;;;;;;;;;;;-0.40;99.90;;;;;;5027280;28;20594;-64
2023/03/28 04:11:09;;;;;;;;;;;-0.40;99.90;;;;;;5030816;28;19921;-64
2023/03/28 04:13:36;;;;;;;;;;;-0.40;99.90;;;;;;5024068;28;19964;-64
2023/03/28 04:16:02;;;;;;;;;;;-0.40;99.90;;;;;;5027667;28;20338;-64
2023/03/28 04:18:29;;;;;;;;;;;-0.40;99.90;;;;;;5025951;28;19925;-65
2023/03/28 04:20:57;;;;;;;;;;;-0.40;99.90;;;;;;5026123;28;20696;-63
2023/03/28 04:23:25;;;;;;;;;;;-0.40;99.90;;;;;;5030834;28;19975;-64
2023/03/28 04:25:54;;;;;;;;;;;-0.40;99.90;;;;;;5024686;28;20383;-64
2023/03/28 04:28:24;;;;;;;;;;;-0.40;99.90;;;;;;5027839;28;20391;-63
2023/03/28 04:30:53;;;;;;;;;;;-0.40;99.90;;;;;;5030035;28;19921;-64
2023/03/28 04:33:23;;;;;;;;;;;-0.40;99.90;;;;;;5029450;28;19925;-64
2023/03/28 04:35:55;;;;;;;;;;;-0.40;99.90;;;;;;5034638;28;20272;-63
2023/03/28 04:38:24;;;;;;;;;;;-0.40;99.90;;;;;;5033338;28;19947;-64
2023/03/28 04:40:56;;;;;;;;;;;-0.40;99.90;;;;;;5031195;28;19924;-63
2023/03/28 04:43:23;;;;;;;;;;;-0.40;99.90;;;;;;5033273;28;19921;-64
2023/03/28 04:45:49;;;;;;;;;;;-0.40;99.90;;;;;;5030510;28;19925;-64
2023/03/28 04:48:16;;;;;;;;;;;-0.50;99.90;;;;;;5029120;28;19975;-64
2023/03/28 04:50:43;;;;;;;;;;;-0.50;99.90;;;;;;5035120;28;19931;-64
2023/03/28 04:53:11;;;;;;;;;;;-0.50;99.90;;;;;;5032993;28;19921;-64
2023/03/28 04:55:37;;;;;;;;;;;-0.50;99.90;;;;;;5030913;28;20011;-63
2023/03/28 04:58:05;;;;;;;;;;;-0.50;99.90;;;;;;5033200;28;19922;-63
2023/03/28 05:00:32;;;;;;;;;;;-0.50;99.90;;;;;;5030837;28;19968;-64
2023/03/28 05:02:59;;;;;;;;;;;-0.50;99.90;;;;;;5031730;28;19921;-64
2023/03/28 05:05:26;;;;;;;;;;;-0.60;99.90;;;;;;5034859;28;20027;-64
2023/03/28 05:07:52;;;;;;;;;;;-0.50;99.90;;;;;;5033134;28;19955;-64
2023/03/28 05:10:19;;;;;;;;;;;-0.60;99.90;;;;;;5029926;28;20446;-64
2023/03/28 05:12:45;;;;;;;;;;;-0.70;99.90;;;;;;5030077;28;20299;-64
2023/03/28 05:15:13;;;;;;;;;;;-0.70;99.90;;;;;;5030023;28;19929;-63
2023/03/28 05:17:40;;;;;;;;;;;-0.70;99.90;;;;;;5029522;28;20008;-63
2023/03/28 05:20:09;;;;;;;;;;;-0.70;99.90;;;;;;5034123;28;20015;-64
2023/03/28 05:22:36;;;;;;;;;;;-0.70;99.90;;;;;;5029847;28;19922;-62
2023/03/28 05:25:03;;;;;;;;;;;-0.70;99.90;;;;;;5034022;28;19933;-64
2023/03/28 05:27:29;;;;;;;;;;;-0.70;99.90;;;;;;5025555;28;19925;-60
2023/03/28 05:29:56;;;;;;;;;;;-0.70;99.90;;;;;;5029952;28;19925;-61
2023/03/28 05:32:24;;;;;;;;;;;-0.70;99.90;;;;;;5032687;28;20011;-60
2023/03/28 05:34:51;;;;;;;;;;;-0.70;99.90;;;;;;5032753;28;19932;-60
2023/03/28 05:37:17;;;;;;;;;;;-0.70;99.90;;;;;;5029667;28;19925;-62
2023/03/28 05:39:44;;;;;;;;;;;-0.70;99.90;;;;;;5033841;28;20599;-60
2023/03/28 05:42:10;;;;;;;;;;;-0.70;99.90;;;;;;5032550;28;19921;-60
2023/03/28 05:44:37;;;;;;;;;;;-0.60;99.90;;;;;;5029974;28;20438;-61
2023/03/28 05:47:04;;;;;;;;;;;-0.60;99.90;;;;;;5031803;28;19921;-61
2023/03/28 05:49:31;;;;;;;;;;;-0.60;99.90;;;;;;5033087;28;19925;-62
2023/03/28 05:51:58;;;;;;;;;;;-0.50;99.90;;;;;;5031461;28;20326;-61
2023/03/28 05:54:24;;;;;;;;;;;-0.50;99.90;;;;;;5029477;28;19925;-61
2023/03/28 05:56:51;;;;;;;;;;;-0.40;99.90;;;;;;5033415;28;20115;-61
2023/03/28 05:59:18;;;;;;;;;;;-0.40;99.90;;;;;;5027770;28;19921;-63
2023/03/28 06:01:47;;;;;;;;;;;-0.30;99.90;;;;;;5032619;28;19925;-60
2023/03/28 06:04:14;;;;;;;;;;;-0.30;99.90;;;;;;5032869;28;19927;-63
2023/03/28 06:06:42;;;;;;;;;;;-0.20;99.90;;;;;;5032875;28;20339;-63
2023/03/28 06:09:09;;;;;;;;;;;-0.20;99.90;;;;;;5027662;28;20019;-65
2023/03/28 06:11:36;;;;;;;;;;;-0.20;99.90;;;;;;5019863;28;19924;-60
2023/03/28 06:14:02;;;;;;;;;;;-0.10;99.90;;;;;;5029921;28;20334;-61
2023/03/28 06:16:29;;;;;;;;;;;-0.10;99.90;;;;;;5028699;28;19925;-60
2023/03/28 06:18:55;;;;;;;;;;;0.00;99.90;;;;;;5033025;28;19928;-61
2023/03/28 06:21:22;;;;;;;;;;;0.10;99.90;;;;;;5031497;28;19928;-62
2023/03/28 06:23:50;;;;;;;;;;;0.20;99.90;;;;;;5032504;28;19925;-62
2023/03/28 06:26:17;;;;;;;;;;;0.30;99.90;;;;;;5028595;28;20332;-57
2023/03/28 06:28:43;;;;;;;;;;;0.30;99.90;;;;;;5028669;28;19931;-62
2023/03/28 06:31:10;;;;;;;;;;;0.40;99.90;;;;;;5032272;28;20256;-64
2023/03/28 06:33:39;;;;;;;;;;;0.50;99.90;;;;;;5031992;28;19971;-64
2023/03/28 06:36:06;;;;;;;;;;;0.50;99.90;;;;;;5023405;28;19960;-65
2023/03/28 06:38:33;;;;;;;;;;;0.70;99.90;;;;;;5035368;28;20380;-64
2023/03/28 06:41:01;;;;;;;;;;;0.80;99.90;;;;;;5026204;28;20012;-65
2023/03/28 06:43:27;;;;;;;;;;;0.90;99.90;;;;;;5031618;28;19921;-63
2023/03/28 06:45:54;;;;;;;;;;;1.00;99.90;;;;;;5026207;28;19975;-63
2023/03/28 06:48:20;;;;;;;;;;;1.10;99.90;;;;;;5030384;28;19921;-64
2023/03/28 06:50:49;;;;;;;;;;;1.20;99.90;;;;;;5024198;28;20407;-64
2023/03/28 06:53:15;;;;;;;;;;;1.30;99.90;;;;;;5032424;28;19928;-62
2023/03/28 06:55:42;;;;;;;;;;;1.40;99.90;;;;;;5023395;28;20281;-61
2023/03/28 06:58:10;;;;;;;;;;;1.50;99.90;;;;;;5025912;28;19944;-65
2023/03/28 07:00:37;;;;;;;;;;;1.60;99.90;;;;;;5029949;28;19921;-61
2023/03/28 07:03:04;;;;;;;;;;;1.70;99.90;;;;;;5028319;28;19928;-62
2023/03/28 07:05:31;;;;;;;;;;;1.80;99.90;;;;;;5028374;28;20441;-62
2023/03/28 07:07:58;;;;;;;;;;;1.90;99.90;;;;;;5031760;28;20273;-61
2023/03/28 07:10:24;;;;;;;;;;;2.00;99.90;;;;;;5024315;28;19929;-63
2023/03/28 07:12:51;;;;;;;;;;;2.10;99.90;;;;;;5024558;28;19932;-62
2023/03/28 07:15:19;;;;;;;;;;;2.20;99.90;;;;;;5025174;28;19932;-61
2023/03/28 07:17:45;;;;;;;;;;;2.30;99.90;;;;;;5031332;28;19960;-61
2023/03/28 07:20:12;;;;;;;;;;;2.40;99.90;;;;;;5027002;28;19940;-61
2023/03/28 07:22:38;;;;;;;;;;;2.50;99.90;;;;;;5032292;28;19936;-61
2023/03/28 07:25:06;;;;;;;;;;;2.60;99.90;;;;;;5027449;28;19948;-62
2023/03/28 07:27:33;;;;;;;;;;;2.70;99.90;;;;;;5031392;28;20375;-64
2023/03/28 07:30:00;;;;;;;;;;;2.80;99.90;;;;;;5026662;28;19925;-62
2023/03/28 07:32:28;;;;;;;;;;;2.90;94.30;;;;;;5028230;28;20331;-61
2023/03/28 07:34:54;;;;;;;;;;;3.00;93.70;;;;;;5026331;28;19948;-66
2023/03/28 07:37:21;;;;;;;;;;;3.00;77.70;;;;;;5031311;28;19928;-64
2023/03/28 07:39:47;;;;;;;;;;;3.10;75.60;;;;;;5024018;28;19975;-65
2023/03/28 07:42:14;;;;;;;;;;;3.20;71.20;;;;;;5031132;28;19925;-64
2023/03/28 07:44:41;;;;;;;;;;;3.30;61.50;;;;;;5026691;28;20383;-65
2023/03/28 07:47:08;;;;;;;;;;;3.40;52.60;;;;;;5030879;28;19971;-65
2023/03/28 07:49:36;;;;;;;;;;;3.50;25.90;;;;;;5023310;28;19921;-64
2023/03/28 07:52:03;;;;;;;;;;;3.60;24.30;;;;;;5025251;28;19925;-64
2023/03/28 07:54:31;;;;;;;;;;;3.80;1.00;;;;;;5027118;28;19925;-64
2023/03/28 07:56:59;;;;;;;;;;;3.80;1.00;;;;;;5029520;28;19929;-63
2023/03/28 07:59:26;;;;;;;;;;;3.90;1.00;;;;;;5026013;28;20439;-63
2023/03/28 08:01:52;;;;;;;;;;;4.00;1.00;;;;;;5022843;28;19943;-63
2023/03/28 08:04:19;;;;;;;;;;;4.00;1.00;;;;;;5027793;28;19967;-66
2023/03/28 08:06:47;;;;;;;;;;;4.10;1.00;;;;;;5026781;28;19925;-65
2023/03/28 08:09:14;;;;;;;;;;;4.20;1.00;;;;;;5028378;28;19976;-66
2023/03/28 08:11:42;;;;;;;;;;;4.30;1.00;;;;;;5031568;28;19925;-66
2023/03/28 08:14:10;;;;;;;;;;;4.40;1.00;;;;;;5023241;28;19921;-65
2023/03/28 08:16:37;;;;;;;;;;;4.60;1.00;;;;;;5034672;28;19921;-65
2023/03/28 08:19:04;;;;;;;;;;;4.70;1.00;;;;;;5034335;28;20010;-64
2023/03/28 08:21:30;;;;;;;;;;;4.90;1.00;;;;;;5035138;28;19921;-65
2023/03/28 08:23:59;;;;;;;;;;;5.00;1.00;;;;;;5031818;28;19928;-64
2023/03/28 08:26:25;;;;;;;;;;;5.10;99.90;;;;;;5034435;28;19927;-66
2023/03/28 08:28:53;;;;;;;;;;;5.20;99.90;;;;;;5028628;28;19932;-64
2023/03/28 08:31:22;;;;;;;;;;;5.30;99.90;;;;;;5029342;28;19982;-65
2023/03/28 08:33:50;;;;;;;;;;;5.30;99.90;;;;;;5030670;28;19928;-65
2023/03/28 08:36:17;;;;;;;;;;;5.30;99.90;;;;;;5027405;28;19975;-66
2023/03/28 08:38:44;;;;;;;;;;;5.40;1.00;;;;;;5029216;28;19925;-60
2023/03/28 08:41:18;;;;;;;;;;;5.40;53.60;;;;;;5031777;28;19921;-62
2023/03/28 08:43:50;;;;;;;;;;;5.50;9.50;;;;;;5029395;28;19921;-63
2023/03/28 08:46:19;;;;;;;;;;;5.50;99.90;;;;;;5026661;28;19921;-62
2023/03/28 08:48:46;;;;;;;;;;;5.50;99.90;;;;;;5029346;28;20380;-59
2023/03/28 08:51:18;;;;;;;;;;;5.50;1.00;;;;;;5034622;28;19925;-62
2023/03/28 08:53:46;;;;;;;;;;;5.50;53.10;;;;;;5029643;28;19932;-64
2023/03/28 08:56:16;;;;;;;;;;;5.30;99.90;;;;;;5033490;28;19944;-63
2023/03/28 08:58:49;;;;;;;;;;;5.20;13.00;;;;;;5028887;28;19921;-64
2023/03/28 09:01:19;;;;;;;;;;;5.20;1.00;;;;;;5030783;28;20012;-64
2023/03/28 09:03:48;;;;;;;;;;;5.00;22.40;;;;;;5029585;28;20375;-64
2023/03/28 09:06:20;;;;;;;;;;;5.00;42.60;;;;;;5033942;28;19951;-64
2023/03/28 09:09:00;;;;;;;;;;;5.20;99.90;;;;;;5029199;28;19932;-64
2023/03/28 09:11:34;;;;;;;;;;;5.30;99.90;;;;;;5030806;28;20291;-62
2023/03/28 09:14:09;;;;;;;;;;;5.40;1.00;;;;;;5028964;28;19933;-64
2023/03/28 09:16:43;;;;;;;;;;;5.30;99.90;;;;;;5030721;28;19927;-64
2023/03/28 09:19:27;;;;;;;;;;;5.30;99.90;;;;;;5031627;28;19921;-62
2023/03/28 09:22:01;;;;;;;;;;;5.40;95.80;;;;;;5027496;28;20011;-63
2023/03/28 09:24:38;;;;;;;;;;;5.60;99.90;;;;;;5028986;28;20380;-64
2023/03/28 09:27:11;;;;;;;;;;;5.70;1.00;;;;;;5032309;28;19921;-63
2023/03/28 09:29:38;;;;;;;;;;;5.80;99.90;;;;;;5027141;28;19931;-65
2023/03/28 09:32:11;;;;;;;;;;;5.90;1.00;;;;;;5026056;28;19975;-63
2023/03/28 09:34:38;;;;;;;;;;;6.00;99.90;;;;;;5031688;28;19921;-64
2023/03/28 09:37:11;;;;;;;;;;;6.10;99.90;;;;;;5029118;28;19975;-65
2023/03/28 09:39:40;;;;;;;;;;;6.20;93.60;;;;;;5028100;28;20639;-65
2023/03/28 09:42:12;;;;;;;;;;;6.20;1.00;;;;;;5025751;28;19930;-66
2023/03/28 09:44:41;;;;;;;;;;;6.30;1.00;;;;;;5029795;28;19967;-65
2023/03/28 09:47:10;;;;;;;;;;;6.30;1.00;;;;;;5023627;28;19925;-64
2023/03/28 09:49:37;;;;;;;;;;;6.20;99.90;;;;;;5032271;28;19925;-64
2023/03/28 09:52:13;;;;;;;;;;;6.20;99.90;;;;;;5028010;28;20330;-66
2023/03/28 09:54:40;;;;;;;;;;;6.20;99.90;;;;;;5026320;28;19925;-65
2023/03/28 09:57:08;;;;;;;;;;;6.00;99.90;;;;;;5027762;28;19928;-66
2023/03/28 09:59:35;;;;;;;;;;;6.20;99.90;;;;;;5026101;28;19928;-65
2023/03/28 10:02:02;;;;;;;;;;;6.30;2.70;;;;;;5030893;28;19921;-66
2023/03/28 10:04:35;;;;;;;;;;;6.30;1.00;;;;;;5028000;28;20008;-65
2023/03/28 10:07:18;;;;;;;;;;;6.00;1.00;;;;;;5028430;28;20322;-66
2023/03/28 10:09:49;;;;;;;;;;;6.10;20.90;;;;;;5027270;28;19929;-63
2023/03/28 10:12:20;;;;;;;;;;;6.10;14.50;;;;;;5031932;28;19922;-64
2023/03/28 10:14:47;;;;;;;;;;;6.20;1.00;;;;;;5024864;28;19979;-65
2023/03/28 10:17:15;;;;;;;;;;;6.30;1.00;;;;;;5033879;28;19958;-65
2023/03/28 10:19:43;;;;;;;;;;;6.50;1.00;;;;;;5034808;28;19928;-65
2023/03/28 10:22:12;;;;;;;;;;;6.70;1.00;;;;;;5032634;28;19929;-64
2023/03/28 10:24:39;;;;;;;;;;;6.60;1.00;;;;;;5028898;28;19980;-65
2023/03/28 10:27:07;;;;;;;;;;;6.60;1.00;;;;;;5024932;28;20350;-65
2023/03/28 10:29:36;;;;;;;;;;;6.60;1.00;;;;;;5027110;28;19925;-66
2023/03/28 10:32:04;;;;;;;;;;;6.30;1.00;;;;;;5028186;28;20016;-65
2023/03/28 10:34:32;;;;;;;;;;;6.30;1.00;;;;;;5031115;28;19987;-66
2023/03/28 10:36:59;;;;;;;;;;;6.20;1.00;;;;;;5018082;28;19928;-64
2023/03/28 10:39:27;;;;;;;;;;;6.40;1.00;;;;;;5026894;28;19963;-65
2023/03/28 10:41:54;;;;;;;;;;;6.60;1.00;;;;;;5028921;28;20331;-65
2023/03/28 10:44:26;;;;;;;;;;;6.90;1.00;;;;;;5020667;28;19929;-63
2023/03/28 10:46:54;;;;;;;;;;;7.20;1.00;;;;;;5027223;28;20316;-64
2023/03/28 10:49:21;;;;;;;;;;;7.30;99.90;;;;;;5029752;28;19921;-62
2023/03/28 10:51:47;;;;;;;;;;;7.10;99.90;;;;;;5030288;28;19920;-65
2023/03/28 10:54:21;;;;;;;;;;;7.10;99.90;;;;;;5024902;28;20394;-63
2023/03/28 10:56:51;;;;;;;;;;;7.10;99.90;;;;;;5027513;28;19925;-63
2023/03/28 10:59:28;;;;;;;;;;;7.40;99.90;;;;;;5025600;28;19921;-66
2023/03/28 11:02:01;;;;;;;;;;;7.30;99.90;;;;;;5031283;28;19924;-65
2023/03/28 11:04:34;;;;;;;;;;;7.40;99.90;;;;;;5028058;28;19925;-64
2023/03/28 11:07:05;;;;;;;;;;;7.50;99.90;;;;;;5031993;28;21524;-65
2023/03/28 11:09:37;;;;;;;;;;;7.60;99.90;;;;;;5028310;28;20020;-64
2023/03/28 11:12:11;;;;;;;;;;;7.60;99.90;;;;;;5029813;28;19937;-64
2023/03/28 11:14:43;;;;;;;;;;;7.50;99.90;;;;;;5023046;28;19933;-64
2023/03/28 11:17:14;;;;;;;;;;;7.20;99.90;;;;;;5031610;28;20295;-63
2023/03/28 11:19:46;;;;;;;;;;;7.20;99.90;;;;;;5029532;28;19925;-62
2023/03/28 11:22:19;;;;;;;;;;;7.20;99.90;;;;;;5032177;28;19979;-63
2023/03/28 11:24:49;;;;;;;;;;;7.20;99.90;;;;;;5022558;28;20703;-62
2023/03/28 11:27:19;;;;;;;;;;;7.30;99.90;;;;;;5025153;28;19931;-63
2023/03/28 11:29:48;;;;;;;;;;;7.50;99.90;;;;;;5027258;28;19987;-61
2023/03/28 11:32:18;;;;;;;;;;;7.60;99.90;;;;;;5022892;28;19924;-63
2023/03/28 11:34:46;;;;;;;;;;;7.60;99.90;;;;;;5029828;28;19979;-64
2023/03/28 11:37:16;;;;;;;;;;;7.40;99.90;;;;;;5031853;28;19932;-68
2023/03/28 11:39:46;;;;;;;;;;;7.50;99.90;;;;;;5026226;28;19925;-66
2023/03/28 11:42:19;;;;;;;;;;;7.60;99.90;;;;;;5028791;28;19925;-66
2023/03/28 11:44:49;;;;;;;;;;;7.60;99.90;;;;;;5028134;28;19936;-64
2023/03/28 11:47:18;;;;;;;;;;;7.70;99.90;;;;;;5028454;28;19925;-63
2023/03/28 11:49:48;;;;;;;;;;;7.80;99.90;;;;;;5024730;28;19936;-64
2023/03/28 11:52:17;;;;;;;;;;;7.70;99.90;;;;;;5028101;28;19951;-64
2023/03/28 11:54:45;;;;;;;;;;;7.90;99.90;;;;;;5026455;28;19929;-63
2023/03/28 11:57:16;;;;;;;;;;;8.00;99.90;;;;;;5028000;28;19984;-63
2023/03/28 11:59:46;;;;;;;;;;;8.00;99.90;;;;;;5028506;28;19987;-65
2023/03/28 12:02:19;;;;;;;;;;;7.90;99.90;;;;;;5021543;28;20336;-66
2023/03/28 12:04:49;;;;;;;;;;;7.80;99.90;;;;;;5030901;28;20337;-64
2023/03/28 12:07:18;;;;;;;;;;;7.90;99.90;;;;;;5030919;28;19929;-63
2023/03/28 12:09:54;;;;;;;;;;;8.10;99.90;;;;;;5029300;28;19987;-64
2023/03/28 12:12:23;;;;;;;;;;;7.90;99.90;;;;;;5031003;28;19996;-65
2023/03/28 12:14:52;;;;;;;;;;;8.00;99.90;;;;;;5030126;28;19932;-65
2023/03/28 12:17:22;;;;;;;;;;;7.90;99.90;;;;;;5026128;28;19928;-66
2023/03/28 12:19:50;;;;;;;;;;;8.00;99.90;;;;;;5027717;28;20024;-65
2023/03/28 12:22:20;;;;;;;;;;;8.10;99.90;;;;;;5023363;28;19951;-65
2023/03/28 12:24:51;;;;;;;;;;;8.20;99.90;;;;;;5031691;28;20264;-66
2023/03/28 12:27:24;;;;;;;;;;;8.00;99.90;;;;;;5026559;28;20017;-66
2023/03/28 12:29:52;;;;;;;;;;;8.10;99.90;;;;;;5020790;28;20295;-66
2023/03/28 12:32:24;;;;;;;;;;;8.20;99.90;;;;;;5026897;28;19980;-65
2023/03/28 12:34:54;;;;;;;;;;;8.20;99.90;;;;;;5030492;28;19925;-66
2023/03/28 12:37:24;;;;;;;;;;;8.40;99.90;;;;;;5030665;28;19925;-66
2023/03/28 12:39:54;;;;;;;;;;;8.30;99.90;;;;;;5028452;28;19975;-66
2023/03/28 12:42:21;;;;;;;;;;;8.50;99.90;;;;;;5026814;28;19925;-66
2023/03/28 12:44:50;;;;;;;;;;;8.50;99.90;;;;;;5026777;28;19932;-66
2023/03/28 12:47:18;;;;;;;;;;;8.50;99.90;;;;;;5027497;28;19929;-66
2023/03/28 12:49:48;;;;;;;;;;;8.30;99.90;;;;;;5027676;28;20342;-66
2023/03/28 12:52:18;;;;;;;;;;;8.00;99.90;;;;;;5031033;28;19929;-66
2023/03/28 12:54:56;;;;;;;;;;;8.20;99.90;;;;;;5027243;28;19925;-66
2023/03/28 12:57:42;;;;;;;;;;;8.20;99.90;;;;;;5029647;28;19925;-66
2023/03/28 13:00:15;;;;;;;;;;;8.20;99.90;;;;;;5028393;28;19925;-66
2023/03/28 13:02:47;;;;;;;;;;;8.40;99.90;;;;;;5032872;28;20407;-66
2023/03/28 13:05:17;;;;;;;;;;;8.60;99.90;;;;;;5027812;28;19926;-66
2023/03/28 13:07:52;;;;;;;;;;;8.70;99.90;;;;;;5033330;28;19932;-66
2023/03/28 13:10:22;;;;;;;;;;;8.50;99.90;;;;;;5030057;28;19929;-65
2023/03/28 13:12:55;;;;;;;;;;;8.80;99.90;;;;;;5034303;28;19925;-74
2023/03/28 13:15:27;;;;;;;;;;;8.90;99.90;;;;;;5024417;28;19934;-67
2023/03/28 13:18:14;;;;;;;;;;;9.00;99.90;;;;;;5031544;28;20383;-66
2023/03/28 13:20:44;;;;;;;;;;;8.80;99.90;;;;;;5025844;28;19925;-66
2023/03/28 13:23:14;;;;;;;;;;;8.80;99.90;;;;;;5036379;28;20400;-66
2023/03/28 13:25:42;;;;;;;;;;;8.80;99.90;;;;;;5024512;28;19925;-68
2023/03/28 13:28:26;;;;;;;;;;;8.90;99.90;;;;;;5033935;28;19925;-67
2023/03/28 13:31:04;;;;;;;;;;;8.60;99.90;;;;;;5027460;28;19929;-67
2023/03/28 13:33:32;;;;;;;;;;;8.60;99.90;;;;;;5033883;28;20395;-67
2023/03/28 13:36:12;;;;;;;;;;;8.70;99.90;;;;;;5024804;28;20366;-64
2023/03/28 13:38:45;;;;;;;;;;;8.70;99.90;;;;;;5029467;28;20339;-66
2023/03/28 13:41:27;;;;;;;;;;;8.80;99.90;;;;;;5029585;28;20012;-67
2023/03/28 13:43:55;;;;;;;;;;;8.80;99.90;;;;;;5030877;28;19933;-64
2023/03/28 13:46:24;;;;;;;;;;;8.50;99.90;;;;;;5029933;28;19929;-66
2023/03/28 13:48:53;;;;;;;;;;;8.50;99.90;;;;;;5029680;28;19926;-70
2023/03/28 13:51:22;;;;;;;;;;;8.60;99.90;;;;;;5035987;28;19925;-69
2023/03/28 13:53:50;;;;;;;;;;;8.70;99.90;;;;;;5046748;28;19952;-70
2023/03/28 13:56:20;;;;;;;;;;;8.80;99.90;;;;;;5031853;28;20392;-68
2023/03/28 13:58:48;;;;;;;;;;;9.00;99.90;;;;;;5038126;28;19925;-67
2023/03/28 14:01:15;;;;;;;;;;;8.90;99.90;;;;;;5035579;28;19933;-67
2023/03/28 14:03:42;;;;;;;;;;;8.60;99.90;;;;;;5034546;28;19932;-70
2023/03/28 14:06:14;;;;;;;;;;;8.50;99.90;;;;;;5029717;28;19929;-68
2023/03/28 14:08:45;;;;;;;;;;;8.60;99.90;;;;;;5030016;28;19925;-66
2023/03/28 14:11:15;;;;;;;;;;;8.60;99.90;;;;;;5026598;28;20012;-67
2023/03/28 14:13:42;;;;;;;;;;;8.60;99.90;;;;;;5034256;28;20463;-66
2023/03/28 14:16:09;;;;;;;;;;;8.50;99.90;;;;;;5025710;28;20350;-66
2023/03/28 14:18:36;;;;;;;;;;;8.60;99.90;;;;;;5033309;28;20020;-65
2023/03/28 14:21:05;;;;;;;;;;;8.80;99.90;;;;;;5033701;28;19929;-66
2023/03/28 14:23:32;;;;;;;;;;;8.90;99.90;;;;;;5034320;28;20016;-66
2023/03/28 14:26:00;;;;;;;;;;;9.10;99.90;;;;;;5025420;28;19952;-67
2023/03/28 14:28:29;;;;;;;;;;;9.00;99.90;;;;;;5033278;28;20362;-67
2023/03/28 14:30:56;;;;;;;;;;;8.90;99.90;;;;;;5028678;28;19936;-66
2023/03/28 14:33:23;;;;;;;;;;;8.90;99.90;;;;;;5028716;28;19929;-70
2023/03/28 14:35:56;;;;;;;;;;;9.00;99.90;;;;;;5032770;28;19925;-66
2023/03/28 14:38:27;;;;;;;;;;;9.20;99.90;;;;;;5028712;28;19932;-68
2023/03/28 14:40:54;;;;;;;;;;;9.00;99.90;;;;;;5032964;28;20004;-66